sensor_id;sensor_type;location;lat;lon;timestamp;P1;durP1;ratioP1;P2;durP2;ratioP2
60243;SDS011;46106;51.468;5.814;2023-03-13T00:00:13;20.30;;;3.05;;
60243;SDS011;46106;51.468;5.814;2023-03-13T00:02:40;22.75;;;2.60;;
60243;SDS011;46106;51.468;5.814;2023-03-13T00:05:09;24.95;;;2.95;;
60243;SDS011;46106;51.468;5.814;2023-03-13T00:07:37;23.58;;;2.20;;
60243;SDS011;46106;51.468;5.814;2023-03-13T00:10:03;20.38;;;2.70;;
60243;SDS011;46106;51.468;5.814;2023-03-13T00:12:29;25.58;;;2.80;;
60243;SDS011;46106;51.468;5.814;2023-03-13T00:14:55;20.92;;;2.42;;
60243;SDS011;46106;51.468;5.814;2023-03-13T00:17:20;20.00;;;3.30;;
60243;SDS011;46106;51.468;5.814;2023-03-13T00:19:46;21.98;;;3.63;;
60243;SDS011;46106;51.468;5.814;2023-03-13T00:22:11;21.52;;;2.78;;
60243;SDS011;46106;51.468;5.814;2023-03-13T00:24:37;20.55;;;2.90;;
60243;SDS011;46106;51.468;5.814;2023-03-13T00:27:02;27.00;;;3.25;;
60243;SDS011;46106;51.468;5.814;2023-03-13T00:29:29;23.13;;;2.35;;
60243;SDS011;46106;51.468;5.814;2023-03-13T00:31:57;18.60;;;2.42;;
60243;SDS011;46106;51.468;5.814;2023-03-13T00:34:23;20.73;;;2.22;;
60243;SDS011;46106;51.468;5.814;2023-03-13T00:36:51;20.50;;;2.85;;
60243;SDS011;46106;51.468;5.814;2023-03-13T00:39:17;31.98;;;3.30;;
60243;SDS011;46106;51.468;5.814;2023-03-13T00:41:43;20.27;;;2.53;;
60243;SDS011;46106;51.468;5.814;2023-03-13T00:44:09;19.50;;;2.28;;
60243;SDS011;46106;51.468;5.814;2023-03-13T00:46:35;26.30;;;3.08;;
60243;SDS011;46106;51.468;5.814;2023-03-13T00:49:00;26.27;;;3.13;;
60243;SDS011;46106;51.468;5.814;2023-03-13T00:51:29;19.50;;;2.20;;
60243;SDS011;46106;51.468;5.814;2023-03-13T00:53:55;27.85;;;3.65;;
60243;SDS011;46106;51.468;5.814;2023-03-13T00:56:24;26.40;;;3.30;;
60243;SDS011;46106;51.468;5.814;2023-03-13T00:58:50;25.20;;;2.90;;
60243;SDS011;46106;51.468;5.814;2023-03-13T01:01:17;17.08;;;2.38;;
60243;SDS011;46106;51.468;5.814;2023-03-13T01:03:46;26.52;;;3.72;;
60243;SDS011;46106;51.468;5.814;2023-03-13T01:06:17;27.73;;;3.08;;
60243;SDS011;46106;51.468;5.814;2023-03-13T01:08:44;23.50;;;2.60;;
60243;SDS011;46106;51.468;5.814;2023-03-13T01:11:11;26.35;;;3.08;;
60243;SDS011;46106;51.468;5.814;2023-03-13T01:13:39;26.85;;;3.25;;
60243;SDS011;46106;51.468;5.814;2023-03-13T01:16:06;23.92;;;3.13;;
60243;SDS011;46106;51.468;5.814;2023-03-13T01:18:34;27.48;;;3.67;;
60243;SDS011;46106;51.468;5.814;2023-03-13T01:21:01;32.10;;;3.55;;
60243;SDS011;46106;51.468;5.814;2023-03-13T01:23:27;33.25;;;3.60;;
60243;SDS011;46106;51.468;5.814;2023-03-13T01:25:53;22.70;;;2.88;;
60243;SDS011;46106;51.468;5.814;2023-03-13T01:28:20;22.45;;;3.35;;
60243;SDS011;46106;51.468;5.814;2023-03-13T01:30:46;25.63;;;3.58;;
60243;SDS011;46106;51.468;5.814;2023-03-13T01:33:11;28.10;;;5.18;;
60243;SDS011;46106;51.468;5.814;2023-03-13T01:35:36;18.45;;;3.30;;
60243;SDS011;46106;51.468;5.814;2023-03-13T01:38:02;20.83;;;3.92;;
60243;SDS011;46106;51.468;5.814;2023-03-13T01:40:27;31.85;;;3.97;;
60243;SDS011;46106;51.468;5.814;2023-03-13T01:42:57;25.67;;;4.07;;
60243;SDS011;46106;51.468;5.814;2023-03-13T01:51:13;25.98;;;3.35;;
60243;SDS011;46106;51.468;5.814;2023-03-13T01:53:44;33.45;;;4.03;;
60243;SDS011;46106;51.468;5.814;2023-03-13T01:56:16;21.42;;;4.18;;
60243;SDS011;46106;51.468;5.814;2023-03-13T01:58:48;23.38;;;3.40;;
60243;SDS011;46106;51.468;5.814;2023-03-13T02:01:16;17.00;;;2.75;;
60243;SDS011;46106;51.468;5.814;2023-03-13T02:03:47;19.63;;;3.55;;
60243;SDS011;46106;51.468;5.814;2023-03-13T02:06:14;10.82;;;2.90;;
60243;SDS011;46106;51.468;5.814;2023-03-13T02:08:51;19.15;;;3.35;;
60243;SDS011;46106;51.468;5.814;2023-03-13T02:14:17;8.98;;;2.15;;
60243;SDS011;46106;51.468;5.814;2023-03-13T02:16:51;7.53;;;2.78;;
60243;SDS011;46106;51.468;5.814;2023-03-13T02:24:44;6.40;;;1.90;;
60243;SDS011;46106;51.468;5.814;2023-03-13T02:27:18;13.98;;;2.47;;
60243;SDS011;46106;51.468;5.814;2023-03-13T02:29:43;10.18;;;2.15;;
60243;SDS011;46106;51.468;5.814;2023-03-13T02:32:09;13.48;;;3.42;;
60243;SDS011;46106;51.468;5.814;2023-03-13T02:34:37;9.68;;;2.58;;
60243;SDS011;46106;51.468;5.814;2023-03-13T02:37:05;7.82;;;2.97;;
60243;SDS011;46106;51.468;5.814;2023-03-13T02:39:35;11.50;;;2.75;;
60243;SDS011;46106;51.468;5.814;2023-03-13T02:42:03;14.02;;;2.53;;
60243;SDS011;46106;51.468;5.814;2023-03-13T02:44:29;17.27;;;3.20;;
60243;SDS011;46106;51.468;5.814;2023-03-13T02:46:55;10.70;;;3.60;;
60243;SDS011;46106;51.468;5.814;2023-03-13T02:49:24;8.57;;;4.10;;
60243;SDS011;46106;51.468;5.814;2023-03-13T02:51:52;8.95;;;4.32;;
60243;SDS011;46106;51.468;5.814;2023-03-13T02:54:20;8.85;;;3.25;;
60243;SDS011;46106;51.468;5.814;2023-03-13T02:56:50;10.63;;;3.92;;
60243;SDS011;46106;51.468;5.814;2023-03-13T02:59:19;11.23;;;3.58;;
60243;SDS011;46106;51.468;5.814;2023-03-13T03:01:45;9.73;;;4.10;;
60243;SDS011;46106;51.468;5.814;2023-03-13T03:04:10;9.77;;;4.20;;
60243;SDS011;46106;51.468;5.814;2023-03-13T03:06:36;10.88;;;4.22;;
60243;SDS011;46106;51.468;5.814;2023-03-13T03:09:01;8.40;;;3.90;;
60243;SDS011;46106;51.468;5.814;2023-03-13T03:11:27;9.30;;;3.15;;
60243;SDS011;46106;51.468;5.814;2023-03-13T03:13:52;9.52;;;3.97;;
60243;SDS011;46106;51.468;5.814;2023-03-13T03:16:18;13.77;;;4.20;;
60243;SDS011;46106;51.468;5.814;2023-03-13T03:18:44;12.80;;;4.15;;
60243;SDS011;46106;51.468;5.814;2023-03-13T03:21:10;9.05;;;4.10;;
60243;SDS011;46106;51.468;5.814;2023-03-13T03:23:36;10.98;;;4.50;;
60243;SDS011;46106;51.468;5.814;2023-03-13T03:26:02;6.72;;;3.55;;
60243;SDS011;46106;51.468;5.814;2023-03-13T03:28:28;9.85;;;3.72;;
60243;SDS011;46106;51.468;5.814;2023-03-13T03:30:54;12.23;;;4.00;;
60243;SDS011;46106;51.468;5.814;2023-03-13T03:33:20;4.80;;;3.40;;
60243;SDS011;46106;51.468;5.814;2023-03-13T03:35:46;7.60;;;3.50;;
60243;SDS011;46106;51.468;5.814;2023-03-13T03:38:12;11.75;;;3.95;;
60243;SDS011;46106;51.468;5.814;2023-03-13T03:40:37;5.22;;;3.70;;
60243;SDS011;46106;51.468;5.814;2023-03-13T03:43:02;8.80;;;4.05;;
60243;SDS011;46106;51.468;5.814;2023-03-13T03:45:28;7.10;;;3.38;;
60243;SDS011;46106;51.468;5.814;2023-03-13T03:47:53;7.85;;;4.20;;
60243;SDS011;46106;51.468;5.814;2023-03-13T03:50:22;10.27;;;4.90;;
60243;SDS011;46106;51.468;5.814;2023-03-13T03:52:47;9.77;;;4.80;;
60243;SDS011;46106;51.468;5.814;2023-03-13T03:55:13;7.18;;;4.50;;
60243;SDS011;46106;51.468;5.814;2023-03-13T03:57:38;8.75;;;4.80;;
60243;SDS011;46106;51.468;5.814;2023-03-13T04:00:04;11.48;;;5.00;;
60243;SDS011;46106;51.468;5.814;2023-03-13T04:02:31;7.90;;;5.15;;
60243;SDS011;46106;51.468;5.814;2023-03-13T04:04:57;8.10;;;4.65;;
60243;SDS011;46106;51.468;5.814;2023-03-13T04:07:22;11.05;;;5.35;;
60243;SDS011;46106;51.468;5.814;2023-03-13T04:09:48;9.25;;;4.93;;
60243;SDS011;46106;51.468;5.814;2023-03-13T04:12:13;8.05;;;4.65;;
60243;SDS011;46106;51.468;5.814;2023-03-13T04:14:39;7.93;;;5.47;;
60243;SDS011;46106;51.468;5.814;2023-03-13T04:17:04;9.52;;;5.35;;
60243;SDS011;46106;51.468;5.814;2023-03-13T04:19:30;9.10;;;5.22;;
60243;SDS011;46106;51.468;5.814;2023-03-13T04:21:55;9.32;;;5.82;;
60243;SDS011;46106;51.468;5.814;2023-03-13T04:24:20;9.98;;;5.63;;
60243;SDS011;46106;51.468;5.814;2023-03-13T04:26:46;9.35;;;5.57;;
60243;SDS011;46106;51.468;5.814;2023-03-13T04:29:11;11.10;;;5.35;;
60243;SDS011;46106;51.468;5.814;2023-03-13T04:31:37;8.52;;;5.05;;
60243;SDS011;46106;51.468;5.814;2023-03-13T04:34:02;8.38;;;5.07;;
60243;SDS011;46106;51.468;5.814;2023-03-13T04:36:28;11.23;;;6.03;;
60243;SDS011;46106;51.468;5.814;2023-03-13T04:38:53;10.88;;;6.38;;
60243;SDS011;46106;51.468;5.814;2023-03-13T04:41:18;10.75;;;5.80;;
60243;SDS011;46106;51.468;5.814;2023-03-13T04:43:47;9.23;;;6.07;;
60243;SDS011;46106;51.468;5.814;2023-03-13T04:46:12;10.40;;;5.75;;
60243;SDS011;46106;51.468;5.814;2023-03-13T04:48:38;10.05;;;5.88;;
60243;SDS011;46106;51.468;5.814;2023-03-13T04:51:03;12.77;;;6.50;;
60243;SDS011;46106;51.468;5.814;2023-03-13T04:53:29;9.68;;;5.10;;
60243;SDS011;46106;51.468;5.814;2023-03-13T04:55:54;6.53;;;4.93;;
60243;SDS011;46106;51.468;5.814;2023-03-13T04:58:20;6.80;;;4.07;;
60243;SDS011;46106;51.468;5.814;2023-03-13T05:00:45;10.05;;;4.85;;
60243;SDS011;46106;51.468;5.814;2023-03-13T05:03:11;8.60;;;4.60;;
60243;SDS011;46106;51.468;5.814;2023-03-13T05:05:36;8.23;;;4.93;;
60243;SDS011;46106;51.468;5.814;2023-03-13T05:08:02;7.38;;;4.15;;
60243;SDS011;46106;51.468;5.814;2023-03-13T05:10:29;9.55;;;4.63;;
60243;SDS011;46106;51.468;5.814;2023-03-13T05:12:54;7.57;;;4.22;;
60243;SDS011;46106;51.468;5.814;2023-03-13T05:15:20;6.50;;;3.92;;
60243;SDS011;46106;51.468;5.814;2023-03-13T05:17:45;8.15;;;3.75;;
60243;SDS011;46106;51.468;5.814;2023-03-13T05:20:11;4.85;;;3.40;;
60243;SDS011;46106;51.468;5.814;2023-03-13T05:22:37;6.00;;;3.83;;
60243;SDS011;46106;51.468;5.814;2023-03-13T05:25:03;5.63;;;3.20;;
60243;SDS011;46106;51.468;5.814;2023-03-13T05:27:29;5.72;;;3.08;;
60243;SDS011;46106;51.468;5.814;2023-03-13T05:29:55;6.07;;;2.80;;
60243;SDS011;46106;51.468;5.814;2023-03-13T05:32:21;5.03;;;2.67;;
60243;SDS011;46106;51.468;5.814;2023-03-13T05:34:48;4.78;;;3.25;;
60243;SDS011;46106;51.468;5.814;2023-03-13T05:37:13;5.55;;;2.80;;
60243;SDS011;46106;51.468;5.814;2023-03-13T05:39:38;4.07;;;2.80;;
60243;SDS011;46106;51.468;5.814;2023-03-13T05:42:04;6.47;;;2.60;;
60243;SDS011;46106;51.468;5.814;2023-03-13T05:44:29;3.20;;;2.55;;
60243;SDS011;46106;51.468;5.814;2023-03-13T05:46:55;10.82;;;2.75;;
60243;SDS011;46106;51.468;5.814;2023-03-13T05:49:20;5.82;;;2.33;;
60243;SDS011;46106;51.468;5.814;2023-03-13T05:51:46;4.47;;;2.67;;
60243;SDS011;46106;51.468;5.814;2023-03-13T05:54:11;4.15;;;2.50;;
60243;SDS011;46106;51.468;5.814;2023-03-13T05:56:37;6.65;;;2.70;;
60243;SDS011;46106;51.468;5.814;2023-03-13T05:59:02;2.83;;;1.92;;
60243;SDS011;46106;51.468;5.814;2023-03-13T06:01:28;6.75;;;2.63;;
60243;SDS011;46106;51.468;5.814;2023-03-13T06:03:53;7.90;;;2.78;;
60243;SDS011;46106;51.468;5.814;2023-03-13T06:06:21;5.88;;;2.28;;
60243;SDS011;46106;51.468;5.814;2023-03-13T06:08:46;4.38;;;2.00;;
60243;SDS011;46106;51.468;5.814;2023-03-13T06:11:12;3.67;;;2.05;;
60243;SDS011;46106;51.468;5.814;2023-03-13T06:13:37;6.18;;;2.70;;
60243;SDS011;46106;51.468;5.814;2023-03-13T06:16:03;7.25;;;2.22;;
60243;SDS011;46106;51.468;5.814;2023-03-13T06:18:29;5.15;;;1.58;;
60243;SDS011;46106;51.468;5.814;2023-03-13T06:20:59;7.32;;;2.00;;
60243;SDS011;46106;51.468;5.814;2023-03-13T06:23:25;7.82;;;2.25;;
60243;SDS011;46106;51.468;5.814;2023-03-13T06:25:51;4.53;;;1.40;;
60243;SDS011;46106;51.468;5.814;2023-03-13T06:28:17;7.25;;;1.90;;
60243;SDS011;46106;51.468;5.814;2023-03-13T06:30:43;4.13;;;1.27;;
60243;SDS011;46106;51.468;5.814;2023-03-13T06:33:08;9.75;;;1.95;;
60243;SDS011;46106;51.468;5.814;2023-03-13T06:35:34;5.68;;;1.48;;
60243;SDS011;46106;51.468;5.814;2023-03-13T06:37:59;7.38;;;1.70;;
60243;SDS011;46106;51.468;5.814;2023-03-13T06:40:25;2.55;;;1.30;;
60243;SDS011;46106;51.468;5.814;2023-03-13T06:42:50;6.97;;;1.73;;
60243;SDS011;46106;51.468;5.814;2023-03-13T06:45:16;4.20;;;1.30;;
60243;SDS011;46106;51.468;5.814;2023-03-13T06:47:41;8.30;;;1.83;;
60243;SDS011;46106;51.468;5.814;2023-03-13T06:50:07;6.75;;;1.70;;
60243;SDS011;46106;51.468;5.814;2023-03-13T06:52:33;6.70;;;1.60;;
60243;SDS011;46106;51.468;5.814;2023-03-13T06:54:58;5.57;;;1.80;;
60243;SDS011;46106;51.468;5.814;2023-03-13T06:57:25;6.22;;;1.90;;
60243;SDS011;46106;51.468;5.814;2023-03-13T06:59:50;5.30;;;1.95;;
60243;SDS011;46106;51.468;5.814;2023-03-13T07:02:16;6.22;;;1.80;;
60243;SDS011;46106;51.468;5.814;2023-03-13T07:04:42;8.25;;;1.60;;
60243;SDS011;46106;51.468;5.814;2023-03-13T07:07:07;4.97;;;1.60;;
60243;SDS011;46106;51.468;5.814;2023-03-13T07:09:33;8.38;;;1.83;;
60243;SDS011;46106;51.468;5.814;2023-03-13T07:11:58;7.90;;;1.80;;
60243;SDS011;46106;51.468;5.814;2023-03-13T07:14:24;4.15;;;1.77;;
60243;SDS011;46106;51.468;5.814;2023-03-13T07:16:50;6.63;;;1.75;;
60243;SDS011;46106;51.468;5.814;2023-03-13T07:19:15;8.50;;;1.85;;
60243;SDS011;46106;51.468;5.814;2023-03-13T07:21:41;7.15;;;1.98;;
60243;SDS011;46106;51.468;5.814;2023-03-13T07:24:08;4.63;;;1.88;;
60243;SDS011;46106;51.468;5.814;2023-03-13T07:26:33;8.68;;;2.25;;
60243;SDS011;46106;51.468;5.814;2023-03-13T07:28:59;8.48;;;2.08;;
60243;SDS011;46106;51.468;5.814;2023-03-13T07:31:24;8.77;;;2.42;;
60243;SDS011;46106;51.468;5.814;2023-03-13T07:33:50;5.97;;;1.80;;
60243;SDS011;46106;51.468;5.814;2023-03-13T07:36:20;7.43;;;1.80;;
60243;SDS011;46106;51.468;5.814;2023-03-13T07:38:47;12.77;;;2.03;;
60243;SDS011;46106;51.468;5.814;2023-03-13T07:41:12;6.90;;;2.10;;
60243;SDS011;46106;51.468;5.814;2023-03-13T07:43:38;8.18;;;2.95;;
60243;SDS011;46106;51.468;5.814;2023-03-13T07:46:05;13.13;;;2.80;;
60243;SDS011;46106;51.468;5.814;2023-03-13T07:48:33;11.85;;;2.28;;
60243;SDS011;46106;51.468;5.814;2023-03-13T07:51:03;6.78;;;2.05;;
60243;SDS011;46106;51.468;5.814;2023-03-13T07:53:30;6.00;;;1.67;;
60243;SDS011;46106;51.468;5.814;2023-03-13T07:55:56;10.05;;;1.67;;
60243;SDS011;46106;51.468;5.814;2023-03-13T07:58:30;6.15;;;1.73;;
60243;SDS011;46106;51.468;5.814;2023-03-13T08:01:01;12.43;;;2.40;;
60243;SDS011;46106;51.468;5.814;2023-03-13T08:03:32;7.43;;;1.70;;
60243;SDS011;46106;51.468;5.814;2023-03-13T08:05:58;7.13;;;1.52;;
60243;SDS011;46106;51.468;5.814;2023-03-13T08:08:26;11.98;;;2.00;;
60243;SDS011;46106;51.468;5.814;2023-03-13T08:10:52;8.38;;;1.88;;
60243;SDS011;46106;51.468;5.814;2023-03-13T08:13:17;6.13;;;1.75;;
60243;SDS011;46106;51.468;5.814;2023-03-13T08:15:43;8.30;;;2.00;;
60243;SDS011;46106;51.468;5.814;2023-03-13T08:18:08;8.27;;;1.40;;
60243;SDS011;46106;51.468;5.814;2023-03-13T08:20:34;8.75;;;1.90;;
60243;SDS011;46106;51.468;5.814;2023-03-13T08:22:59;6.75;;;1.58;;
60243;SDS011;46106;51.468;5.814;2023-03-13T08:25:24;6.70;;;1.58;;
60243;SDS011;46106;51.468;5.814;2023-03-13T08:27:50;8.45;;;1.90;;
60243;SDS011;46106;51.468;5.814;2023-03-13T08:30:15;7.25;;;2.10;;
60243;SDS011;46106;51.468;5.814;2023-03-13T08:32:41;6.30;;;1.58;;
60243;SDS011;46106;51.468;5.814;2023-03-13T08:35:07;7.28;;;2.20;;
60243;SDS011;46106;51.468;5.814;2023-03-13T08:37:32;7.75;;;1.52;;
60243;SDS011;46106;51.468;5.814;2023-03-13T08:39:58;9.13;;;1.52;;
60243;SDS011;46106;51.468;5.814;2023-03-13T08:42:23;9.48;;;2.20;;
60243;SDS011;46106;51.468;5.814;2023-03-13T08:44:52;6.43;;;1.67;;
60243;SDS011;46106;51.468;5.814;2023-03-13T08:47:17;6.68;;;1.30;;
60243;SDS011;46106;51.468;5.814;2023-03-13T08:49:43;6.13;;;1.50;;
60243;SDS011;46106;51.468;5.814;2023-03-13T08:52:09;8.35;;;1.95;;
60243;SDS011;46106;51.468;5.814;2023-03-13T08:54:34;6.10;;;1.80;;
60243;SDS011;46106;51.468;5.814;2023-03-13T08:57:00;9.48;;;1.70;;
60243;SDS011;46106;51.468;5.814;2023-03-13T08:59:25;7.03;;;1.60;;
60243;SDS011;46106;51.468;5.814;2023-03-13T09:01:51;4.32;;;1.50;;
60243;SDS011;46106;51.468;5.814;2023-03-13T09:04:16;8.70;;;1.50;;
60243;SDS011;46106;51.468;5.814;2023-03-13T09:06:43;4.68;;;1.48;;
60243;SDS011;46106;51.468;5.814;2023-03-13T09:09:08;8.93;;;1.95;;
60243;SDS011;46106;51.468;5.814;2023-03-13T09:11:35;4.43;;;1.20;;
60243;SDS011;46106;51.468;5.814;2023-03-13T09:14:01;5.85;;;1.45;;
60243;SDS011;46106;51.468;5.814;2023-03-13T09:16:28;5.95;;;1.55;;
60243;SDS011;46106;51.468;5.814;2023-03-13T09:18:55;13.00;;;1.48;;
60243;SDS011;46106;51.468;5.814;2023-03-13T09:21:23;7.47;;;1.30;;
60243;SDS011;46106;51.468;5.814;2023-03-13T09:23:50;8.55;;;1.60;;
60243;SDS011;46106;51.468;5.814;2023-03-13T09:26:17;4.57;;;1.35;;
60243;SDS011;46106;51.468;5.814;2023-03-13T09:28:43;3.97;;;1.45;;
60243;SDS011;46106;51.468;5.814;2023-03-13T09:31:10;8.93;;;1.45;;
60243;SDS011;46106;51.468;5.814;2023-03-13T09:33:40;13.50;;;1.40;;
60243;SDS011;46106;51.468;5.814;2023-03-13T09:36:07;5.50;;;1.33;;
60243;SDS011;46106;51.468;5.814;2023-03-13T09:38:34;4.65;;;1.08;;
60243;SDS011;46106;51.468;5.814;2023-03-13T09:41:06;4.85;;;1.23;;
60243;SDS011;46106;51.468;5.814;2023-03-13T09:46:40;6.07;;;1.20;;
60243;SDS011;46106;51.468;5.814;2023-03-13T09:49:41;4.03;;;1.10;;
60243;SDS011;46106;51.468;5.814;2023-03-13T09:54:53;2.63;;;1.15;;
60243;SDS011;46106;51.468;5.814;2023-03-13T09:57:35;5.07;;;1.58;;
60243;SDS011;46106;51.468;5.814;2023-03-13T10:00:33;4.22;;;1.27;;
60243;SDS011;46106;51.468;5.814;2023-03-13T10:03:10;2.72;;;1.10;;
60243;SDS011;46106;51.468;5.814;2023-03-13T10:05:54;1.65;;;0.90;;
60243;SDS011;46106;51.468;5.814;2023-03-13T10:08:25;5.80;;;1.27;;
60243;SDS011;46106;51.468;5.814;2023-03-13T10:10:56;60.35;;;2.55;;
60243;SDS011;46106;51.468;5.814;2023-03-13T10:16:05;2.33;;;0.75;;
60243;SDS011;46106;51.468;5.814;2023-03-13T10:18:34;4.00;;;0.90;;
60243;SDS011;46106;51.468;5.814;2023-03-13T10:21:03;2.97;;;0.80;;
60243;SDS011;46106;51.468;5.814;2023-03-13T10:23:54;3.60;;;1.00;;
60243;SDS011;46106;51.468;5.814;2023-03-13T10:26:28;3.92;;;1.00;;
60243;SDS011;46106;51.468;5.814;2023-03-13T10:29:01;1.80;;;0.80;;
60243;SDS011;46106;51.468;5.814;2023-03-13T10:31:44;4.38;;;1.17;;
60243;SDS011;46106;51.468;5.814;2023-03-13T10:34:19;5.68;;;0.80;;
60243;SDS011;46106;51.468;5.814;2023-03-13T10:36:46;2.63;;;0.90;;
60243;SDS011;46106;51.468;5.814;2023-03-13T10:39:23;2.05;;;0.88;;
60243;SDS011;46106;51.468;5.814;2023-03-13T10:41:55;1.35;;;0.80;;
60243;SDS011;46106;51.468;5.814;2023-03-13T10:44:42;0.80;;;0.60;;
60243;SDS011;46106;51.468;5.814;2023-03-13T10:47:08;1.30;;;0.70;;
60243;SDS011;46106;51.468;5.814;2023-03-13T10:49:36;3.50;;;0.80;;
60243;SDS011;46106;51.468;5.814;2023-03-13T10:52:25;2.83;;;0.63;;
60243;SDS011;46106;51.468;5.814;2023-03-13T10:55:01;2.75;;;1.00;;
60243;SDS011;46106;51.468;5.814;2023-03-13T10:57:40;4.57;;;0.93;;
60243;SDS011;46106;51.468;5.814;2023-03-13T11:03:18;1.77;;;0.80;;
60243;SDS011;46106;51.468;5.814;2023-03-13T11:05:53;3.40;;;0.82;;
60243;SDS011;46106;51.468;5.814;2023-03-13T11:08:25;0.70;;;0.60;;
60243;SDS011;46106;51.468;5.814;2023-03-13T11:11:00;2.95;;;1.00;;
60243;SDS011;46106;51.468;5.814;2023-03-13T11:13:35;1.90;;;1.13;;
60243;SDS011;46106;51.468;5.814;2023-03-13T11:16:21;4.68;;;1.17;;
60243;SDS011;46106;51.468;5.814;2023-03-13T11:21:35;3.00;;;0.77;;
60243;SDS011;46106;51.468;5.814;2023-03-13T11:24:14;2.67;;;1.00;;
60243;SDS011;46106;51.468;5.814;2023-03-13T11:27:03;1.25;;;0.80;;
60243;SDS011;46106;51.468;5.814;2023-03-13T11:35:00;1.98;;;0.80;;
60243;SDS011;46106;51.468;5.814;2023-03-13T11:37:35;3.20;;;1.00;;
60243;SDS011;46106;51.468;5.814;2023-03-13T11:51:09;1.00;;;0.70;;
60243;SDS011;46106;51.468;5.814;2023-03-13T12:04:58;3.30;;;0.60;;
60243;SDS011;46106;51.468;5.814;2023-03-13T12:10:03;2.35;;;0.80;;
60243;SDS011;46106;51.468;5.814;2023-03-13T12:12:38;2.08;;;0.70;;
60243;SDS011;46106;51.468;5.814;2023-03-13T12:17:50;1.75;;;0.70;;
60243;SDS011;46106;51.468;5.814;2023-03-13T12:20:37;2.97;;;0.93;;
60243;SDS011;46106;51.468;5.814;2023-03-13T12:26:17;4.17;;;1.00;;
60243;SDS011;46106;51.468;5.814;2023-03-13T12:34:32;0.88;;;0.68;;
60243;SDS011;46106;51.468;5.814;2023-03-13T12:39:48;5.13;;;0.90;;
60243;SDS011;46106;51.468;5.814;2023-03-13T12:42:22;5.37;;;1.30;;
60243;SDS011;46106;51.468;5.814;2023-03-13T12:44:50;2.15;;;1.00;;
60243;SDS011;46106;51.468;5.814;2023-03-13T12:52:58;1.67;;;0.65;;
60243;SDS011;46106;51.468;5.814;2023-03-13T12:58:28;3.20;;;0.60;;
60243;SDS011;46106;51.468;5.814;2023-03-13T13:01:04;0.95;;;0.60;;
60243;SDS011;46106;51.468;5.814;2023-03-13T13:03:48;4.57;;;0.70;;
60243;SDS011;46106;51.468;5.814;2023-03-13T13:06:17;2.80;;;0.60;;
60243;SDS011;46106;51.468;5.814;2023-03-13T13:09:26;0.40;;;0.40;;
60243;SDS011;46106;51.468;5.814;2023-03-13T13:11:45;8.57;;;0.68;;
60243;SDS011;46106;51.468;5.814;2023-03-13T13:17:30;2.67;;;0.82;;
60243;SDS011;46106;51.468;5.814;2023-03-13T13:19:42;1.77;;;0.50;;
60243;SDS011;46106;51.468;5.814;2023-03-13T13:32:43;3.00;;;1.08;;
60243;SDS011;46106;51.468;5.814;2023-03-13T13:35:26;2.45;;;0.70;;
60243;SDS011;46106;51.468;5.814;2023-03-13T13:38:19;0.63;;;0.63;;
60243;SDS011;46106;51.468;5.814;2023-03-13T13:41:04;1.85;;;0.63;;
60243;SDS011;46106;51.468;5.814;2023-03-13T13:43:47;2.58;;;0.75;;
60243;SDS011;46106;51.468;5.814;2023-03-13T13:46:21;0.50;;;0.50;;
60243;SDS011;46106;51.468;5.814;2023-03-13T13:49:34;4.07;;;0.70;;
60243;SDS011;46106;51.468;5.814;2023-03-13T13:54:31;3.50;;;0.70;;
60243;SDS011;46106;51.468;5.814;2023-03-13T13:57:20;2.88;;;0.63;;
60243;SDS011;46106;51.468;5.814;2023-03-13T13:59:52;2.08;;;0.55;;
60243;SDS011;46106;51.468;5.814;2023-03-13T14:02:28;3.60;;;0.85;;
60243;SDS011;46106;51.468;5.814;2023-03-13T14:05:00;1.50;;;0.70;;
60243;SDS011;46106;51.468;5.814;2023-03-13T14:07:36;2.58;;;0.60;;
60243;SDS011;46106;51.468;5.814;2023-03-13T14:12:59;1.60;;;0.60;;
60243;SDS011;46106;51.468;5.814;2023-03-13T14:15:27;2.10;;;0.80;;
60243;SDS011;46106;51.468;5.814;2023-03-13T14:17:58;1.00;;;0.47;;
60243;SDS011;46106;51.468;5.814;2023-03-13T14:20:39;2.95;;;0.63;;
60243;SDS011;46106;51.468;5.814;2023-03-13T14:23:34;1.42;;;0.73;;
60243;SDS011;46106;51.468;5.814;2023-03-13T14:26:19;1.08;;;0.60;;
60243;SDS011;46106;51.468;5.814;2023-03-13T14:28:48;1.17;;;0.50;;
60243;SDS011;46106;51.468;5.814;2023-03-13T14:31:26;2.20;;;0.85;;
60243;SDS011;46106;51.468;5.814;2023-03-13T14:33:59;1.13;;;0.50;;
60243;SDS011;46106;51.468;5.814;2023-03-13T14:36:27;1.90;;;0.50;;
60243;SDS011;46106;51.468;5.814;2023-03-13T14:38:54;4.03;;;0.60;;
60243;SDS011;46106;51.468;5.814;2023-03-13T14:41:28;1.10;;;0.43;;
60243;SDS011;46106;51.468;5.814;2023-03-13T14:44:09;2.30;;;0.60;;
60243;SDS011;46106;51.468;5.814;2023-03-13T14:46:49;4.13;;;0.65;;
60243;SDS011;46106;51.468;5.814;2023-03-13T14:49:24;1.83;;;0.80;;
60243;SDS011;46106;51.468;5.814;2023-03-13T14:54:52;1.65;;;0.60;;
60243;SDS011;46106;51.468;5.814;2023-03-13T14:57:23;4.35;;;0.65;;
60243;SDS011;46106;51.468;5.814;2023-03-13T14:59:51;3.60;;;0.50;;
60243;SDS011;46106;51.468;5.814;2023-03-13T15:02:21;1.73;;;0.52;;
60243;SDS011;46106;51.468;5.814;2023-03-13T15:04:53;1.90;;;0.38;;
60243;SDS011;46106;51.468;5.814;2023-03-13T15:07:26;2.75;;;0.60;;
60243;SDS011;46106;51.468;5.814;2023-03-13T15:10:00;1.95;;;0.63;;
60243;SDS011;46106;51.468;5.814;2023-03-13T15:12:25;2.80;;;0.70;;
60243;SDS011;46106;51.468;5.814;2023-03-13T15:14:54;3.85;;;0.70;;
60243;SDS011;46106;51.468;5.814;2023-03-13T15:17:24;3.75;;;0.60;;
60243;SDS011;46106;51.468;5.814;2023-03-13T15:19:55;2.75;;;0.85;;
60243;SDS011;46106;51.468;5.814;2023-03-13T15:22:35;2.72;;;0.68;;
60243;SDS011;46106;51.468;5.814;2023-03-13T15:25:03;1.92;;;0.50;;
60243;SDS011;46106;51.468;5.814;2023-03-13T15:27:38;1.90;;;0.63;;
60243;SDS011;46106;51.468;5.814;2023-03-13T15:30:04;3.78;;;0.70;;
60243;SDS011;46106;51.468;5.814;2023-03-13T15:32:34;3.40;;;0.63;;
60243;SDS011;46106;51.468;5.814;2023-03-13T15:35:22;4.28;;;0.88;;
60243;SDS011;46106;51.468;5.814;2023-03-13T15:37:49;2.45;;;0.80;;
60243;SDS011;46106;51.468;5.814;2023-03-13T15:40:15;2.90;;;0.60;;
60243;SDS011;46106;51.468;5.814;2023-03-13T15:42:41;3.05;;;0.85;;
60243;SDS011;46106;51.468;5.814;2023-03-13T15:45:07;3.72;;;0.90;;
60243;SDS011;46106;51.468;5.814;2023-03-13T15:47:32;6.50;;;1.27;;
60243;SDS011;46106;51.468;5.814;2023-03-13T15:49:58;5.75;;;0.85;;
60243;SDS011;46106;51.468;5.814;2023-03-13T15:52:23;3.55;;;0.80;;
60243;SDS011;46106;51.468;5.814;2023-03-13T15:54:49;9.15;;;0.85;;
60243;SDS011;46106;51.468;5.814;2023-03-13T15:57:25;1.75;;;0.70;;
60243;SDS011;46106;51.468;5.814;2023-03-13T15:59:51;2.47;;;0.60;;
60243;SDS011;46106;51.468;5.814;2023-03-13T16:02:19;4.10;;;1.02;;
60243;SDS011;46106;51.468;5.814;2023-03-13T16:04:46;2.90;;;0.82;;
60243;SDS011;46106;51.468;5.814;2023-03-13T16:07:13;3.58;;;0.77;;
60243;SDS011;46106;51.468;5.814;2023-03-13T16:09:40;7.72;;;0.75;;
60243;SDS011;46106;51.468;5.814;2023-03-13T16:12:07;4.95;;;0.85;;
60243;SDS011;46106;51.468;5.814;2023-03-13T16:14:33;5.78;;;1.65;;
60243;SDS011;46106;51.468;5.814;2023-03-13T16:16:59;6.65;;;0.75;;
60243;SDS011;46106;51.468;5.814;2023-03-13T16:19:25;2.45;;;0.73;;
60243;SDS011;46106;51.468;5.814;2023-03-13T16:21:51;4.35;;;0.75;;
60243;SDS011;46106;51.468;5.814;2023-03-13T16:24:17;3.95;;;0.63;;
60243;SDS011;46106;51.468;5.814;2023-03-13T16:26:43;3.60;;;0.70;;
60243;SDS011;46106;51.468;5.814;2023-03-13T16:29:13;4.95;;;1.13;;
60243;SDS011;46106;51.468;5.814;2023-03-13T16:31:40;6.55;;;1.05;;
60243;SDS011;46106;51.468;5.814;2023-03-13T16:34:06;6.70;;;1.08;;
60243;SDS011;46106;51.468;5.814;2023-03-13T16:36:33;5.60;;;1.10;;
60243;SDS011;46106;51.468;5.814;2023-03-13T16:39:00;7.03;;;1.02;;